sensor_id;sensor_type;location;lat;lon;timestamp;temperature;humidity
2112;DHT22;1062;52.538;13.400;2023-02-01T00:01:54;4.40;99.90
2112;DHT22;1062;52.538;13.400;2023-02-01T00:04:20;4.50;99.90
2112;DHT22;1062;52.538;13.400;2023-02-01T00:06:46;4.40;99.90
2112;DHT22;1062;52.538;13.400;2023-02-01T00:09:12;4.20;99.90
2112;DHT22;1062;52.538;13.400;2023-02-01T00:11:37;4.10;99.90
2112;DHT22;1062;52.538;13.400;2023-02-01T00:14:03;4.00;99.90
2112;DHT22;1062;52.538;13.400;2023-02-01T00:16:30;4.00;99.90
2112;DHT22;1062;52.538;13.400;2023-02-01T00:19:01;3.80;99.90
2112;DHT22;1062;52.538;13.400;2023-02-01T00:21:28;3.90;99.90
2112;DHT22;1062;52.538;13.400;2023-02-01T00:23:54;4.00;99.90
2112;DHT22;1062;52.538;13.400;2023-02-01T00:26:40;4.00;99.90
2112;DHT22;1062;52.538;13.400;2023-02-01T00:29:11;4.10;99.90
2112;DHT22;1062;52.538;13.400;2023-02-01T00:31:37;4.00;99.90
2112;DHT22;1062;52.538;13.400;2023-02-01T00:34:03;4.10;99.90
2112;DHT22;1062;52.538;13.400;2023-02-01T00:36:28;4.00;99.90
2112;DHT22;1062;52.538;13.400;2023-02-01T00:38:55;3.90;99.90
2112;DHT22;1062;52.538;13.400;2023-02-01T00:41:21;3.90;99.90
2112;DHT22;1062;52.538;13.400;2023-02-01T00:43:50;3.90;99.90
2112;DHT22;1062;52.538;13.400;2023-02-01T00:46:17;4.10;99.90
2112;DHT22;1062;52.538;13.400;2023-02-01T00:48:43;4.10;99.90
2112;DHT22;1062;52.538;13.400;2023-02-01T00:51:14;4.20;99.90
2112;DHT22;1062;52.538;13.400;2023-02-01T00:53:40;4.00;99.90
2112;DHT22;1062;52.538;13.400;2023-02-01T00:56:06;4.00;99.90
2112;DHT22;1062;52.538;13.400;2023-02-01T00:58:33;4.00;99.90
2112;DHT22;1062;52.538;13.400;2023-02-01T01:01:16;4.20;99.90
2112;DHT22;1062;52.538;13.400;2023-02-01T01:03:44;4.30;99.90
2112;DHT22;1062;52.538;13.400;2023-02-01T01:06:19;4.20;99.90
2112;DHT22;1062;52.538;13.400;2023-02-01T01:08:45;4.10;99.90
2112;DHT22;1062;52.538;13.400;2023-02-01T01:11:17;4.00;99.90
2112;DHT22;1062;52.538;13.400;2023-02-01T01:13:45;3.90;99.90
2112;DHT22;1062;52.538;13.400;2023-02-01T01:16:11;3.90;99.90
2112;DHT22;1062;52.538;13.400;2023-02-01T01:18:37;4.00;99.90
2112;DHT22;1062;52.538;13.400;2023-02-01T01:21:07;3.90;99.90
2112;DHT22;1062;52.538;13.400;2023-02-01T01:23:34;3.80;99.90
2112;DHT22;1062;52.538;13.400;2023-02-01T01:26:00;3.90;99.90
2112;DHT22;1062;52.538;13.400;2023-02-01T01:28:26;3.90;99.90
2112;DHT22;1062;52.538;13.400;2023-02-01T01:30:51;3.80;99.90
2112;DHT22;1062;52.538;13.400;2023-02-01T01:33:17;3.80;99.90
2112;DHT22;1062;52.538;13.400;2023-02-01T01:35:43;3.80;99.90
2112;DHT22;1062;52.538;13.400;2023-02-01T01:38:10;3.80;99.90
2112;DHT22;1062;52.538;13.400;2023-02-01T01:40:36;3.80;99.90
2112;DHT22;1062;52.538;13.400;2023-02-01T01:43:03;3.80;99.90
2112;DHT22;1062;52.538;13.400;2023-02-01T01:45:33;3.90;99.90
2112;DHT22;1062;52.538;13.400;2023-02-01T01:48:00;3.80;99.90
2112;DHT22;1062;52.538;13.400;2023-02-01T01:50:46;3.80;99.90
2112;DHT22;1062;52.538;13.400;2023-02-01T01:53:23;3.80;99.90
2112;DHT22;1062;52.538;13.400;2023-02-01T01:55:51;3.90;99.90
2112;DHT22;1062;52.538;13.400;2023-02-01T01:58:21;3.80;99.90
2112;DHT22;1062;52.538;13.400;2023-02-01T02:00:47;3.90;99.90
2112;DHT22;1062;52.538;13.400;2023-02-01T02:03:32;4.00;99.90
2112;DHT22;1062;52.538;13.400;2023-02-01T02:06:02;3.90;99.90
2112;DHT22;1062;52.538;13.400;2023-02-01T02:08:29;3.90;99.90
2112;DHT22;1062;52.538;13.400;2023-02-01T02:10:55;3.90;99.90
2112;DHT22;1062;52.538;13.400;2023-02-01T02:13:36;4.00;99.90
2112;DHT22;1062;52.538;13.400;2023-02-01T02:16:05;4.00;99.90
2112;DHT22;1062;52.538;13.400;2023-02-01T02:18:44;3.90;99.90
2112;DHT22;1062;52.538;13.400;2023-02-01T02:33:28;3.90;99.90
2112;DHT22;1062;52.538;13.400;2023-02-01T02:41:33;4.10;99.90
2112;DHT22;1062;52.538;13.400;2023-02-01T02:44:47;4.10;99.90
2112;DHT22;1062;52.538;13.400;2023-02-01T02:53:16;4.20;99.90
2112;DHT22;1062;52.538;13.400;2023-02-01T02:56:10;4.10;99.90
2112;DHT22;1062;52.538;13.400;2023-02-01T02:58:55;4.00;99.90
2112;DHT22;1062;52.538;13.400;2023-02-01T03:01:41;4.00;99.90
2112;DHT22;1062;52.538;13.400;2023-02-01T03:04:26;4.10;99.90
2112;DHT22;1062;52.538;13.400;2023-02-01T03:06:52;4.10;99.90
2112;DHT22;1062;52.538;13.400;2023-02-01T03:09:31;4.20;99.90
2112;DHT22;1062;52.538;13.400;2023-02-01T03:12:10;4.20;99.90
2112;DHT22;1062;52.538;13.400;2023-02-01T03:15:03;4.10;99.90
2112;DHT22;1062;52.538;13.400;2023-02-01T03:17:36;4.10;99.90
2112;DHT22;1062;52.538;13.400;2023-02-01T03:20:06;4.10;99.90
2112;DHT22;1062;52.538;13.400;2023-02-01T03:22:33;4.10;99.90
2112;DHT22;1062;52.538;13.400;2023-02-01T03:25:16;4.10;99.90
2112;DHT22;1062;52.538;13.400;2023-02-01T03:27:54;4.10;99.90
2112;DHT22;1062;52.538;13.400;2023-02-01T03:30:24;4.00;99.90
2112;DHT22;1062;52.538;13.400;2023-02-01T03:32:56;4.10;99.90
2112;DHT22;1062;52.538;13.400;2023-02-01T03:38:00;4.10;99.90
2112;DHT22;1062;52.538;13.400;2023-02-01T03:40:27;4.10;99.90
2112;DHT22;1062;52.538;13.400;2023-02-01T03:42:56;4.10;99.90
2112;DHT22;1062;52.538;13.400;2023-02-01T03:45:31;4.00;99.90
2112;DHT22;1062;52.538;13.400;2023-02-01T03:48:00;4.10;99.90
2112;DHT22;1062;52.538;13.400;2023-02-01T03:50:28;4.00;99.90
2112;DHT22;1062;52.538;13.400;2023-02-01T03:52:59;4.10;99.90
2112;DHT22;1062;52.538;13.400;2023-02-01T03:55:28;4.10;99.90
2112;DHT22;1062;52.538;13.400;2023-02-01T03:57:59;4.10;99.90
2112;DHT22;1062;52.538;13.400;2023-02-01T04:00:26;4.20;99.90
2112;DHT22;1062;52.538;13.400;2023-02-01T04:02:52;4.10;99.90
2112;DHT22;1062;52.538;13.400;2023-02-01T04:05:19;4.20;99.90
2112;DHT22;1062;52.538;13.400;2023-02-01T04:07:44;4.20;99.90
2112;DHT22;1062;52.538;13.400;2023-02-01T04:10:11;4.30;99.90
2112;DHT22;1062;52.538;13.400;2023-02-01T04:12:37;4.30;99.90
2112;DHT22;1062;52.538;13.400;2023-02-01T04:15:03;4.40;99.90
2112;DHT22;1062;52.538;13.400;2023-02-01T04:17:29;4.40;99.90
2112;DHT22;1062;52.538;13.400;2023-02-01T04:19:55;4.40;99.90
2112;DHT22;1062;52.538;13.400;2023-02-01T04:22:20;4.50;99.90
2112;DHT22;1062;52.538;13.400;2023-02-01T04:24:46;4.60;99.90
2112;DHT22;1062;52.538;13.400;2023-02-01T04:27:12;4.60;99.90
2112;DHT22;1062;52.538;13.400;2023-02-01T04:29:37;4.50;99.90
2112;DHT22;1062;52.538;13.400;2023-02-01T04:32:04;4.50;99.90
2112;DHT22;1062;52.538;13.400;2023-02-01T04:34:30;4.60;99.90
2112;DHT22;1062;52.538;13.400;2023-02-01T04:36:56;4.70;99.90
2112;DHT22;1062;52.538;13.400;2023-02-01T04:39:22;4.70;99.90
2112;DHT22;1062;52.538;13.400;2023-02-01T04:41:47;4.70;99.90
2112;DHT22;1062;52.538;13.400;2023-02-01T04:44:15;4.70;99.90
2112;DHT22;1062;52.538;13.400;2023-02-01T04:46:42;4.70;99.90
2112;DHT22;1062;52.538;13.400;2023-02-01T04:49:09;4.70;99.90
2112;DHT22;1062;52.538;13.400;2023-02-01T04:51:35;4.80;99.90
2112;DHT22;1062;52.538;13.400;2023-02-01T04:54:01;4.80;99.90
2112;DHT22;1062;52.538;13.400;2023-02-01T04:56:27;4.90;99.90
2112;DHT22;1062;52.538;13.400;2023-02-01T04:58:52;4.90;99.90
2112;DHT22;1062;52.538;13.400;2023-02-01T05:01:18;4.90;99.90
2112;DHT22;1062;52.538;13.400;2023-02-01T05:03:44;5.00;99.90
2112;DHT22;1062;52.538;13.400;2023-02-01T05:06:09;5.00;99.90
2112;DHT22;1062;52.538;13.400;2023-02-01T05:08:35;5.00;99.90
2112;DHT22;1062;52.538;13.400;2023-02-01T05:11:01;5.00;99.90
2112;DHT22;1062;52.538;13.400;2023-02-01T05:13:30;5.00;99.90
2112;DHT22;1062;52.538;13.400;2023-02-01T05:16:14;5.10;99.90
2112;DHT22;1062;52.538;13.400;2023-02-01T05:18:40;5.10;99.90
2112;DHT22;1062;52.538;13.400;2023-02-01T05:21:06;5.20;99.90
2112;DHT22;1062;52.538;13.400;2023-02-01T05:23:31;5.20;99.90
2112;DHT22;1062;52.538;13.400;2023-02-01T05:26:01;5.20;99.90
2112;DHT22;1062;52.538;13.400;2023-02-01T05:28:27;5.20;99.90
2112;DHT22;1062;52.538;13.400;2023-02-01T05:30:54;5.20;99.90
2112;DHT22;1062;52.538;13.400;2023-02-01T05:33:20;5.20;99.90
2112;DHT22;1062;52.538;13.400;2023-02-01T05:35:45;5.20;99.90
2112;DHT22;1062;52.538;13.400;2023-02-01T05:38:11;5.30;99.90
2112;DHT22;1062;52.538;13.400;2023-02-01T05:40:36;5.30;99.90
2112;DHT22;1062;52.538;13.400;2023-02-01T05:43:02;5.30;99.90
2112;DHT22;1062;52.538;13.400;2023-02-01T05:45:27;5.30;99.90
2112;DHT22;1062;52.538;13.400;2023-02-01T05:47:53;5.30;99.90
2112;DHT22;1062;52.538;13.400;2023-02-01T05:50:19;5.30;99.90
2112;DHT22;1062;52.538;13.400;2023-02-01T05:52:44;5.40;99.90
2112;DHT22;1062;52.538;13.400;2023-02-01T05:55:10;5.30;99.90
2112;DHT22;1062;52.538;13.400;2023-02-01T05:57:35;5.30;99.90
2112;DHT22;1062;52.538;13.400;2023-02-01T06:00:01;5.30;99.90
2112;DHT22;1062;52.538;13.400;2023-02-01T06:02:27;5.30;99.90
2112;DHT22;1062;52.538;13.400;2023-02-01T06:04:53;5.30;99.90
2112;DHT22;1062;52.538;13.400;2023-02-01T06:07:18;5.30;99.90
2112;DHT22;1062;52.538;13.400;2023-02-01T06:09:44;5.30;99.90
2112;DHT22;1062;52.538;13.400;2023-02-01T06:12:09;5.30;99.90
2112;DHT22;1062;52.538;13.400;2023-02-01T06:14:35;5.30;99.90
2112;DHT22;1062;52.538;13.400;2023-02-01T06:17:02;5.30;99.90
2112;DHT22;1062;52.538;13.400;2023-02-01T06:19:28;5.30;99.90
2112;DHT22;1062;52.538;13.400;2023-02-01T06:21:53;5.30;99.90
2112;DHT22;1062;52.538;13.400;2023-02-01T06:24:19;5.30;99.90
2112;DHT22;1062;52.538;13.400;2023-02-01T06:26:45;5.30;99.90
2112;DHT22;1062;52.538;13.400;2023-02-01T06:29:10;5.30;99.90
2112;DHT22;1062;52.538;13.400;2023-02-01T06:31:36;5.20;99.90
2112;DHT22;1062;52.538;13.400;2023-02-01T06:34:02;5.10;99.90
2112;DHT22;1062;52.538;13.400;2023-02-01T06:36:28;5.10;99.90
2112;DHT22;1062;52.538;13.400;2023-02-01T06:38:55;5.10;99.90
2112;DHT22;1062;52.538;13.400;2023-02-01T06:41:22;5.00;99.90
2112;DHT22;1062;52.538;13.400;2023-02-01T06:43:48;5.00;99.90
2112;DHT22;1062;52.538;13.400;2023-02-01T06:46:14;5.10;99.90
2112;DHT22;1062;52.538;13.400;2023-02-01T06:48:40;5.10;99.90
2112;DHT22;1062;52.538;13.400;2023-02-01T06:51:10;5.00;99.90
2112;DHT22;1062;52.538;13.400;2023-02-01T06:53:41;5.00;99.90
2112;DHT22;1062;52.538;13.400;2023-02-01T06:56:08;5.00;99.90
2112;DHT22;1062;52.538;13.400;2023-02-01T06:58:34;5.00;99.90
2112;DHT22;1062;52.538;13.400;2023-02-01T07:01:07;5.00;99.90
2112;DHT22;1062;52.538;13.400;2023-02-01T07:03:33;5.00;99.90
2112;DHT22;1062;52.538;13.400;2023-02-01T07:05:58;5.00;99.90
2112;DHT22;1062;52.538;13.400;2023-02-01T07:08:26;5.00;99.90
2112;DHT22;1062;52.538;13.400;2023-02-01T07:10:52;5.10;99.90
2112;DHT22;1062;52.538;13.400;2023-02-01T07:13:18;5.10;99.90
2112;DHT22;1062;52.538;13.400;2023-02-01T07:15:44;5.10;99.90
2112;DHT22;1062;52.538;13.400;2023-02-01T07:18:10;5.10;99.90
2112;DHT22;1062;52.538;13.400;2023-02-01T07:20:36;5.20;99.90
2112;DHT22;1062;52.538;13.400;2023-02-01T07:23:01;5.10;99.90
2112;DHT22;1062;52.538;13.400;2023-02-01T07:25:27;5.10;99.90
2112;DHT22;1062;52.538;13.400;2023-02-01T07:27:53;5.10;99.90
2112;DHT22;1062;52.538;13.400;2023-02-01T07:30:18;5.10;99.90
2112;DHT22;1062;52.538;13.400;2023-02-01T07:32:44;5.10;99.90
2112;DHT22;1062;52.538;13.400;2023-02-01T07:35:09;5.00;99.90
2112;DHT22;1062;52.538;13.400;2023-02-01T07:37:35;5.10;99.90
2112;DHT22;1062;52.538;13.400;2023-02-01T07:40:00;5.10;99.90
2112;DHT22;1062;52.538;13.400;2023-02-01T07:42:26;5.10;99.90
2112;DHT22;1062;52.538;13.400;2023-02-01T07:44:52;5.10;99.90
2112;DHT22;1062;52.538;13.400;2023-02-01T07:47:17;5.10;99.90
2112;DHT22;1062;52.538;13.400;2023-02-01T07:49:43;5.10;99.90
2112;DHT22;1062;52.538;13.400;2023-02-01T07:52:08;5.10;99.90
2112;DHT22;1062;52.538;13.400;2023-02-01T07:54:36;5.00;99.90
2112;DHT22;1062;52.538;13.400;2023-02-01T07:57:02;4.90;99.90
2112;DHT22;1062;52.538;13.400;2023-02-01T07:59:27;4.90;99.90
2112;DHT22;1062;52.538;13.400;2023-02-01T08:01:53;4.70;99.90
2112;DHT22;1062;52.538;13.400;2023-02-01T08:04:18;4.70;99.90
2112;DHT22;1062;52.538;13.400;2023-02-01T08:06:44;4.70;99.90
2112;DHT22;1062;52.538;13.400;2023-02-01T08:09:10;4.70;99.90
2112;DHT22;1062;52.538;13.400;2023-02-01T08:11:36;4.50;99.90
2112;DHT22;1062;52.538;13.400;2023-02-01T08:14:03;4.50;99.90
2112;DHT22;1062;52.538;13.400;2023-02-01T08:16:29;4.40;99.90
2112;DHT22;1062;52.538;13.400;2023-02-01T08:18:55;4.40;99.90
2112;DHT22;1062;52.538;13.400;2023-02-01T08:21:25;4.20;99.90
2112;DHT22;1062;52.538;13.400;2023-02-01T08:23:52;4.20;99.90
2112;DHT22;1062;52.538;13.400;2023-02-01T08:26:23;4.20;99.90
2112;DHT22;1062;52.538;13.400;2023-02-01T08:28:52;4.20;99.90
2112;DHT22;1062;52.538;13.400;2023-02-01T08:31:20;4.10;99.90
2112;DHT22;1062;52.538;13.400;2023-02-01T08:33:52;4.10;99.90
2112;DHT22;1062;52.538;13.400;2023-02-01T08:36:19;4.20;99.90
2112;DHT22;1062;52.538;13.400;2023-02-01T08:38:45;4.20;99.90
2112;DHT22;1062;52.538;13.400;2023-02-01T08:41:14;4.20;99.90
2112;DHT22;1062;52.538;13.400;2023-02-01T08:43:40;4.10;99.90
2112;DHT22;1062;52.538;13.400;2023-02-01T08:46:06;4.10;99.90
2112;DHT22;1062;52.538;13.400;2023-02-01T08:48:32;4.20;99.90
2112;DHT22;1062;52.538;13.400;2023-02-01T08:51:01;4.10;99.90
2112;DHT22;1062;52.538;13.400;2023-02-01T08:53:28;4.10;99.90
2112;DHT22;1062;52.538;13.400;2023-02-01T08:55:53;4.10;99.90
2112;DHT22;1062;52.538;13.400;2023-02-01T08:58:19;4.10;99.90
2112;DHT22;1062;52.538;13.400;2023-02-01T09:00:45;4.00;99.90
2112;DHT22;1062;52.538;13.400;2023-02-01T09:03:11;4.00;99.90
2112;DHT22;1062;52.538;13.400;2023-02-01T09:05:37;4.00;99.90
2112;DHT22;1062;52.538;13.400;2023-02-01T09:08:03;4.00;99.90
2112;DHT22;1062;52.538;13.400;2023-02-01T09:10:29;4.00;99.90
2112;DHT22;1062;52.538;13.400;2023-02-01T09:12:55;4.00;99.90
2112;DHT22;1062;52.538;13.400;2023-02-01T09:15:20;4.10;99.90
2112;DHT22;1062;52.538;13.400;2023-02-01T09:17:46;4.10;99.90
2112;DHT22;1062;52.538;13.400;2023-02-01T09:20:12;4.20;99.90
2112;DHT22;1062;52.538;13.400;2023-02-01T09:22:37;4.20;99.90
2112;DHT22;1062;52.538;13.400;2023-02-01T09:25:03;4.20;99.90
2112;DHT22;1062;52.538;13.400;2023-02-01T09:27:29;4.30;99.90
2112;DHT22;1062;52.538;13.400;2023-02-01T09:29:55;4.40;99.90
2112;DHT22;1062;52.538;13.400;2023-02-01T09:32:21;4.40;99.90
2112;DHT22;1062;52.538;13.400;2023-02-01T09:34:48;4.40;99.90
2112;DHT22;1062;52.538;13.400;2023-02-01T09:37:14;4.40;99.90
2112;DHT22;1062;52.538;13.400;2023-02-01T09:39:40;4.40;99.90
2112;DHT22;1062;52.538;13.400;2023-02-01T09:47:49;4.40;99.90
2112;DHT22;1062;52.538;13.400;2023-02-01T09:50:19;4.50;99.90
2112;DHT22;1062;52.538;13.400;2023-02-01T09:53:06;4.50;99.90
2112;DHT22;1062;52.538;13.400;2023-02-01T09:55:47;4.50;99.90
2112;DHT22;1062;52.538;13.400;2023-02-01T09:58:29;4.60;99.90
2112;DHT22;1062;52.538;13.400;2023-02-01T10:00:58;4.50;99.90
2112;DHT22;1062;52.538;13.400;2023-02-01T10:03:28;4.50;99.90
2112;DHT22;1062;52.538;13.400;2023-02-01T10:15:15;4.50;99.90
2112;DHT22;1062;52.538;13.400;2023-02-01T10:23:08;4.30;99.90
2112;DHT22;1062;52.538;13.400;2023-02-01T10:28:13;4.40;99.90
2112;DHT22;1062;52.538;13.400;2023-02-01T10:30:44;4.40;99.90
2112;DHT22;1062;52.538;13.400;2023-02-01T10:33:41;4.50;99.90
2112;DHT22;1062;52.538;13.400;2023-02-01T10:38:36;4.50;99.90
2112;DHT22;1062;52.538;13.400;2023-02-01T10:41:22;4.60;99.90
2112;DHT22;1062;52.538;13.400;2023-02-01T10:43:54;4.80;99.90
2112;DHT22;1062;52.538;13.400;2023-02-01T10:46:23;4.80;99.90
2112;DHT22;1062;52.538;13.400;2023-02-01T10:48:50;4.80;99.90
2112;DHT22;1062;52.538;13.400;2023-02-01T10:51:38;4.80;99.90
2112;DHT22;1062;52.538;13.400;2023-02-01T10:54:18;4.80;99.90
2112;DHT22;1062;52.538;13.400;2023-02-01T10:56:46;4.70;99.90
2112;DHT22;1062;52.538;13.400;2023-02-01T10:59:21;4.70;99.90
2112;DHT22;1062;52.538;13.400;2023-02-01T11:01:49;4.50;99.90
2112;DHT22;1062;52.538;13.400;2023-02-01T11:04:16;4.50;99.90
2112;DHT22;1062;52.538;13.400;2023-02-01T11:06:44;4.50;99.90
2112;DHT22;1062;52.538;13.400;2023-02-01T11:14:37;4.60;99.90
2112;DHT22;1062;52.538;13.400;2023-02-01T11:20:04;4.80;99.90
2112;DHT22;1062;52.538;13.400;2023-02-01T11:22:31;4.90;99.90
2112;DHT22;1062;52.538;13.400;2023-02-01T11:24:56;5.00;99.90
2112;DHT22;1062;52.538;13.400;2023-02-01T11:27:25;5.10;99.90
